createdAt,value
2018-08-19T00:00:44.195Z,1.42
2018-08-19T00:03:12.697Z,1.50
2018-08-19T00:05:41.209Z,2.45
2018-08-19T00:08:09.552Z,1.40
2018-08-19T00:11:11.226Z,1.75
2018-08-19T00:13:40.102Z,3.08
2018-08-19T00:16:09.602Z,1.47
2018-08-19T00:18:38.504Z,3.37
2018-08-19T00:21:08.709Z,2.20
2018-08-19T00:23:42.445Z,2.27
2018-08-19T00:26:10.901Z,1.60
2018-08-19T00:28:39.258Z,1.45
2018-08-19T00:31:07.600Z,1.47
2018-08-19T00:33:35.986Z,1.70
2018-08-19T00:36:18.701Z,1.80
2018-08-19T00:38:47.107Z,1.92
2018-08-19T00:41:15.447Z,1.75
2018-08-19T00:43:43.790Z,1.85
2018-08-19T00:46:32.962Z,1.87
2018-08-19T00:49:01.836Z,1.47
2018-08-19T00:51:30.320Z,1.80
2018-08-19T00:53:58.774Z,1.90
2018-08-19T00:56:27.126Z,1.70
2018-08-19T00:58:55.479Z,2.27
2018-08-19T01:01:32.158Z,1.95
2018-08-19T01:04:00.634Z,1.82
2018-08-19T01:06:29.092Z,1.55
2018-08-19T01:08:57.500Z,2.83
2018-08-19T01:11:32.508Z,1.75
2018-08-19T01:14:01.085Z,1.77
2018-08-19T01:16:29.504Z,2.47
2018-08-19T01:19:02.337Z,2.40
2018-08-19T01:21:32.356Z,1.77
2018-08-19T01:24:01.879Z,1.70
2018-08-19T01:26:33.984Z,2.27
2018-08-19T01:29:02.377Z,2.50
2018-08-19T01:31:31.038Z,1.82
2018-08-19T01:33:59.428Z,1.90
2018-08-19T01:36:29.218Z,2.83
2018-08-19T01:38:57.669Z,2.10
2018-08-19T01:41:26.174Z,1.92
2018-08-19T01:44:05.363Z,2.05
2018-08-19T01:46:50.287Z,2.67
2018-08-19T01:49:18.668Z,2.08
2018-08-19T01:51:47.412Z,1.98
2018-08-19T01:54:22.936Z,1.87
2018-08-19T01:56:54.851Z,1.90
2018-08-19T01:59:24.026Z,1.92
2018-08-19T02:02:01.191Z,2.12
2018-08-19T02:04:30.797Z,1.75
2018-08-19T02:06:59.817Z,1.72
2018-08-19T02:09:28.217Z,2.35
2018-08-19T02:11:58.911Z,2.00
2018-08-19T02:14:27.483Z,1.87
2018-08-19T02:16:56.574Z,1.80
2018-08-19T02:19:24.925Z,1.82
2018-08-19T02:21:53.747Z,3.65
2018-08-19T02:24:22.173Z,2.15
2018-08-19T02:26:50.563Z,1.87
2018-08-19T02:29:33.601Z,2.22
2018-08-19T02:32:03.121Z,1.98
2018-08-19T02:34:47.237Z,1.70
2018-08-19T02:37:17.600Z,1.87
2018-08-19T02:39:48.188Z,2.02
2018-08-19T02:42:24.773Z,1.87
2018-08-19T02:45:00.216Z,1.98
2018-08-19T02:47:29.061Z,2.33
2018-08-19T02:49:57.473Z,2.92
2018-08-19T02:52:30.532Z,2.70
2018-08-19T02:55:00.263Z,2.75
2018-08-19T02:57:30.264Z,2.72
2018-08-19T02:59:59.822Z,2.02
2018-08-19T03:02:32.402Z,1.80
2018-08-19T03:05:02.952Z,2.10
2018-08-19T03:07:32.228Z,2.00
2018-08-19T03:10:09.623Z,3.55
2018-08-19T03:12:38.353Z,2.25
2018-08-19T03:15:09.188Z,1.77
2018-08-19T03:17:37.560Z,1.60
2018-08-19T03:20:08.066Z,1.92
2018-08-19T03:22:36.593Z,2.08
2018-08-19T03:25:05.524Z,1.90
2018-08-19T03:27:33.933Z,1.80
2018-08-19T03:30:03.850Z,1.70
2018-08-19T03:32:32.372Z,2.90
2018-08-19T03:35:05.193Z,2.75
2018-08-19T03:37:34.289Z,1.70
2018-08-19T03:40:02.730Z,2.27
2018-08-19T03:42:31.237Z,1.50
2018-08-19T03:45:04.496Z,1.87
2018-08-19T03:47:32.921Z,2.00
2018-08-19T03:50:01.423Z,1.57
2018-08-19T03:52:29.833Z,1.67
2018-08-19T03:54:58.237Z,2.25
2018-08-19T03:57:26.646Z,1.72
2018-08-19T03:59:54.998Z,1.80
2018-08-19T04:02:23.464Z,1.82
2018-08-19T04:04:51.868Z,1.75
2018-08-19T04:07:20.217Z,2.02
2018-08-19T04:09:48.643Z,1.52
2018-08-19T04:12:17.743Z,2.08
2018-08-19T04:14:46.111Z,1.92
2018-08-19T04:17:14.998Z,2.90
2018-08-19T04:19:43.333Z,1.80
2018-08-19T04:22:11.732Z,1.92
2018-08-19T04:24:40.092Z,1.85
2018-08-19T04:27:10.397Z,1.77
2018-08-19T04:29:39.309Z,1.75
2018-08-19T04:32:18.614Z,1.60
2018-08-19T04:34:47.023Z,1.45
2018-08-19T04:37:16.028Z,3.10
2018-08-19T04:39:44.830Z,2.33
2018-08-19T04:42:13.755Z,2.10
2018-08-19T04:44:42.414Z,2.27
2018-08-19T04:47:22.194Z,1.62
2018-08-19T04:49:52.272Z,1.80
2018-08-19T04:52:23.252Z,3.35
2018-08-19T04:54:52.983Z,2.20
2018-08-19T04:57:22.015Z,2.00
2018-08-19T04:59:50.625Z,1.50
2018-08-19T05:02:20.160Z,1.70
2018-08-19T05:04:48.441Z,2.17
2018-08-19T05:07:16.815Z,2.47
2018-08-19T05:09:45.476Z,1.72
2018-08-19T05:12:14.328Z,1.67
2018-08-19T05:14:43.166Z,1.70
2018-08-19T05:17:11.870Z,1.65
2018-08-19T05:19:40.348Z,2.12
2018-08-19T05:22:13.224Z,1.70
2018-08-19T05:24:42.236Z,2.15
2018-08-19T05:27:10.815Z,1.52
2018-08-19T05:29:39.464Z,1.77
2018-08-19T05:32:13.260Z,1.67
2018-08-19T05:34:43.141Z,1.72
2018-08-19T05:37:11.753Z,2.90
2018-08-19T05:40:00.288Z,2.35
2018-08-19T05:42:29.066Z,1.60
2018-08-19T05:44:57.700Z,2.02
2018-08-19T05:47:26.214Z,2.27
2018-08-19T05:49:54.640Z,1.60
2018-08-19T05:52:24.021Z,1.67
2018-08-19T05:55:00.414Z,1.90
2018-08-19T05:57:30.429Z,1.70
2018-08-19T05:59:59.423Z,1.70
2018-08-19T06:02:33.764Z,1.35
2018-08-19T06:05:03.652Z,3.15
2018-08-19T06:07:32.212Z,5.03
2018-08-19T06:10:00.764Z,2.60
2018-08-19T06:12:29.382Z,3.65
2018-08-19T06:14:59.585Z,1.90
2018-08-19T06:17:28.010Z,2.85
2018-08-19T06:19:56.479Z,3.12
2018-08-19T06:22:30.252Z,3.08
2018-08-19T06:24:58.632Z,1.95
2018-08-19T06:27:31.405Z,2.02
2018-08-19T06:29:59.959Z,3.58
2018-08-19T06:32:32.110Z,1.57
2018-08-19T06:35:00.993Z,2.25
2018-08-19T06:37:29.418Z,3.58
2018-08-19T06:39:58.030Z,1.72
2018-08-19T06:42:26.449Z,1.70
2018-08-19T06:44:54.844Z,3.62
2018-08-19T06:47:23.351Z,1.75
2018-08-19T06:49:53.881Z,2.35
2018-08-19T06:52:25.890Z,1.72
2018-08-19T06:54:55.640Z,2.45
2018-08-19T06:57:26.158Z,2.05
2018-08-19T06:59:54.595Z,2.65
2018-08-19T07:02:23.843Z,1.67
2018-08-19T07:04:52.412Z,4.10
2018-08-19T07:07:21.103Z,5.10
2018-08-19T07:09:49.439Z,1.95
2018-08-19T07:12:20.843Z,1.80
2018-08-19T07:14:49.815Z,1.95
2018-08-19T07:17:19.211Z,2.65
2018-08-19T07:19:47.813Z,1.55
2018-08-19T07:22:18.601Z,1.85
2018-08-19T07:24:47.116Z,2.60
2018-08-19T07:27:15.618Z,2.87
2018-08-19T07:29:44.085Z,2.40
2018-08-19T07:32:13.166Z,1.65
2018-08-19T07:34:41.664Z,1.80
2018-08-19T07:37:10.238Z,2.05
2018-08-19T07:39:55.499Z,2.58
2018-08-19T07:42:23.908Z,2.08
2018-08-19T07:44:52.367Z,2.95
2018-08-19T07:47:20.689Z,1.72
2018-08-19T07:49:49.013Z,2.62
2018-08-19T07:52:17.457Z,3.77
2018-08-19T07:54:45.860Z,4.60
2018-08-19T07:57:24.616Z,3.00
2018-08-19T07:59:52.950Z,4.17
2018-08-19T08:02:23.292Z,3.95
2018-08-19T08:04:51.898Z,2.47
2018-08-19T08:07:20.401Z,1.82
2018-08-19T08:09:48.818Z,3.50
2018-08-19T08:12:17.160Z,2.27
2018-08-19T08:14:51.094Z,3.40
2018-08-19T08:17:19.781Z,4.28
2018-08-19T08:20:07.880Z,2.95
2018-08-19T08:22:37.446Z,2.35
2018-08-19T08:25:08.625Z,5.58
2018-08-19T08:27:37.045Z,2.90
2018-08-19T08:30:09.180Z,4.85
2018-08-19T08:32:38.079Z,4.70
2018-08-19T08:35:07.441Z,4.35
2018-08-19T08:37:35.977Z,2.95
2018-08-19T08:40:08.460Z,7.08
2018-08-19T08:42:44.740Z,2.17
2018-08-19T08:45:14.769Z,4.65
2018-08-19T08:47:43.359Z,4.47
2018-08-19T08:50:12.668Z,4.50
2018-08-19T08:52:44.256Z,3.30
2018-08-19T08:55:13.744Z,2.85
2018-08-19T08:57:42.090Z,6.37
2018-08-19T09:00:12.000Z,8.40
2018-08-19T09:02:40.322Z,9.48
2018-08-19T09:05:11.327Z,9.10
2018-08-19T09:07:40.425Z,10.72
2018-08-19T09:10:10.744Z,13.45
2018-08-19T09:12:47.483Z,13.10
2018-08-19T09:15:15.932Z,9.80
2018-08-19T09:17:44.445Z,8.78
2018-08-19T09:20:12.944Z,12.30
2018-08-19T09:22:41.961Z,10.08
2018-08-19T09:25:10.949Z,9.23
2018-08-19T09:27:39.959Z,8.68
2018-08-19T09:30:09.934Z,6.70
2018-08-19T09:32:56.417Z,4.65
2018-08-19T09:35:25.535Z,6.20
2018-08-19T09:37:58.399Z,7.65
2018-08-19T09:40:27.480Z,5.17
2018-08-19T09:42:56.494Z,6.25
2018-08-19T09:45:24.863Z,6.53
2018-08-19T09:47:53.454Z,3.92
2018-08-19T09:50:22.635Z,4.80
2018-08-19T09:52:51.832Z,4.92
2018-08-19T09:55:27.155Z,3.95
2018-08-19T09:57:56.072Z,5.67
2018-08-19T10:00:26.094Z,3.55
2018-08-19T10:02:54.496Z,3.72
2018-08-19T10:05:24.522Z,4.97
2018-08-19T10:07:54.727Z,5.12
2018-08-19T10:10:24.161Z,6.12
2018-08-19T10:12:52.549Z,5.78
2018-08-19T10:15:20.984Z,5.45
2018-08-19T10:17:49.401Z,6.67
2018-08-19T10:20:18.083Z,5.45
2018-08-19T10:22:46.572Z,4.95
2018-08-19T10:25:17.283Z,5.40
2018-08-19T10:27:49.338Z,6.80
2018-08-19T10:30:18.938Z,5.30
2018-08-19T10:33:01.739Z,4.15
2018-08-19T10:35:30.961Z,4.78
2018-08-19T10:38:00.372Z,4.58
2018-08-19T10:40:28.726Z,4.12
2018-08-19T10:43:00.743Z,4.50
2018-08-19T10:45:29.293Z,4.05
2018-08-19T10:47:57.719Z,3.50
2018-08-19T10:50:28.824Z,5.47
2018-08-19T10:52:57.261Z,4.67
2018-08-19T10:55:26.995Z,4.17
2018-08-19T10:57:55.554Z,4.95
2018-08-19T11:00:30.141Z,4.05
2018-08-19T11:03:07.299Z,5.40
2018-08-19T11:05:39.639Z,3.62
2018-08-19T11:08:08.431Z,4.17
2018-08-19T11:10:36.851Z,6.30
2018-08-19T11:13:05.362Z,3.52
2018-08-19T11:15:47.241Z,4.78
2018-08-19T11:18:40.871Z,3.72
2018-08-19T11:21:11.015Z,3.60
2018-08-19T11:23:41.304Z,4.08
2018-08-19T11:26:10.511Z,6.15
2018-08-19T11:28:41.785Z,3.67
2018-08-19T11:31:18.885Z,3.58
2018-08-19T11:33:47.381Z,3.62
2018-08-19T11:36:15.747Z,4.72
2018-08-19T11:38:50.283Z,3.55
2018-08-19T11:41:19.005Z,4.47
2018-08-19T11:43:48.485Z,4.55
2018-08-19T11:46:16.929Z,3.42
2018-08-19T11:48:45.437Z,3.67
2018-08-19T11:51:13.813Z,4.33
2018-08-19T11:53:42.309Z,3.42
2018-08-19T11:56:10.806Z,5.37
2018-08-19T11:58:44.293Z,4.03
2018-08-19T12:01:14.482Z,3.98
2018-08-19T12:03:57.225Z,3.60
2018-08-19T12:06:27.060Z,3.50
2018-08-19T12:08:57.451Z,3.83
2018-08-19T12:11:27.873Z,3.77
2018-08-19T12:13:56.315Z,4.17
2018-08-19T12:16:26.082Z,5.20
2018-08-19T12:18:54.553Z,4.78
2018-08-19T12:21:23.581Z,4.47
2018-08-19T12:24:04.359Z,5.80
2018-08-19T12:26:36.983Z,4.55
2018-08-19T12:29:05.660Z,4.20
2018-08-19T12:31:35.006Z,3.98
2018-08-19T12:34:03.397Z,4.58
2018-08-19T12:36:31.769Z,3.70
2018-08-19T12:39:00.242Z,3.85
2018-08-19T12:41:28.614Z,4.45
2018-08-19T12:43:59.965Z,4.35
2018-08-19T12:46:28.557Z,4.22
2018-08-19T12:48:56.942Z,4.87
2018-08-19T12:51:25.342Z,3.90
2018-08-19T12:53:53.676Z,5.92
2018-08-19T12:56:22.033Z,5.20
2018-08-19T12:58:50.490Z,4.17
2018-08-19T13:01:19.045Z,5.25
2018-08-19T13:03:47.458Z,5.30
2018-08-19T13:06:15.867Z,4.22
2018-08-19T13:08:44.312Z,3.90
2018-08-19T13:11:12.823Z,4.35
2018-08-19T13:13:41.238Z,4.08
2018-08-19T13:16:09.624Z,5.03
2018-08-19T13:18:40.677Z,4.37
2018-08-19T13:21:18.555Z,4.78
2018-08-19T13:23:50.508Z,4.40
2018-08-19T13:26:20.375Z,3.87
2018-08-19T13:28:54.130Z,3.90
2018-08-19T13:31:26.719Z,4.90
2018-08-19T13:33:55.171Z,4.78
2018-08-19T13:36:23.561Z,5.50
2018-08-19T13:38:51.987Z,4.40
2018-08-19T13:41:21.161Z,4.83
2018-08-19T13:43:51.685Z,5.67
2018-08-19T13:46:20.118Z,4.05
2018-08-19T13:48:48.709Z,4.15
2018-08-19T13:51:17.487Z,4.03
2018-08-19T13:53:46.001Z,5.58
2018-08-19T13:56:14.445Z,5.40
2018-08-19T13:58:45.905Z,4.20
2018-08-19T14:01:14.328Z,5.42
2018-08-19T14:03:42.649Z,5.97
2018-08-19T14:06:11.075Z,4.37
2018-08-19T14:08:39.530Z,4.10
2018-08-19T14:11:07.928Z,4.10
2018-08-19T14:13:36.342Z,4.40
2018-08-19T14:16:05.497Z,3.75
2018-08-19T14:18:33.893Z,4.25
2018-08-19T14:21:02.439Z,3.85
2018-08-19T14:23:30.797Z,3.40
2018-08-19T14:25:59.256Z,5.05
2018-08-19T14:28:27.645Z,3.72
2018-08-19T14:30:56.036Z,4.50
2018-08-19T14:33:24.790Z,4.10
2018-08-19T14:35:53.204Z,4.00
2018-08-19T14:38:21.676Z,3.77
2018-08-19T14:40:50.160Z,4.40
2018-08-19T14:43:18.510Z,4.28
2018-08-19T14:45:47.069Z,4.30
2018-08-19T14:48:15.466Z,4.22
2018-08-19T14:50:44.327Z,5.85
2018-08-19T14:53:12.695Z,4.85
2018-08-19T14:55:41.109Z,4.30
2018-08-19T14:58:09.483Z,4.37
2018-08-19T15:00:37.933Z,4.40
2018-08-19T15:03:06.302Z,5.22
2018-08-19T15:05:34.682Z,4.03
2018-08-19T15:08:12.414Z,5.35
2018-08-19T15:10:41.354Z,3.80
2018-08-19T15:13:09.740Z,4.08
2018-08-19T15:15:38.409Z,4.00
2018-08-19T15:18:06.974Z,3.90
2018-08-19T15:20:36.536Z,4.45
2018-08-19T15:23:17.608Z,4.08
2018-08-19T15:25:46.170Z,4.40
2018-08-19T15:28:14.961Z,3.92
2018-08-19T15:30:43.529Z,4.78
2018-08-19T15:33:12.909Z,4.12
2018-08-19T15:35:41.925Z,6.92
2018-08-19T15:38:11.885Z,4.42
2018-08-19T15:40:42.993Z,4.20
2018-08-19T15:43:12.192Z,5.83
2018-08-19T15:45:41.485Z,5.75
2018-08-19T15:48:10.003Z,5.55
2018-08-19T15:50:38.373Z,5.12
2018-08-19T15:53:08.778Z,4.50
2018-08-19T15:55:37.773Z,4.15
2018-08-19T15:58:06.738Z,4.72
2018-08-19T16:00:39.866Z,5.22
2018-08-19T16:03:09.552Z,4.47
2018-08-19T16:05:37.957Z,4.10
2018-08-19T16:08:06.783Z,5.53
2018-08-19T16:10:35.197Z,7.53
2018-08-19T16:13:06.943Z,4.62
2018-08-19T16:15:35.354Z,4.92
2018-08-19T16:18:03.798Z,4.40
2018-08-19T16:20:32.197Z,7.67
2018-08-19T16:23:00.567Z,4.83
2018-08-19T16:25:28.933Z,6.75
2018-08-19T16:27:57.276Z,6.17
2018-08-19T16:30:25.671Z,4.42
2018-08-19T16:32:54.090Z,5.17
2018-08-19T16:35:22.447Z,8.35
2018-08-19T16:37:50.894Z,5.80
2018-08-19T16:40:19.449Z,3.98
2018-08-19T16:42:47.959Z,6.55
2018-08-19T16:45:16.337Z,4.78
2018-08-19T16:47:44.708Z,5.40
2018-08-19T16:50:13.721Z,5.40
2018-08-19T16:52:41.993Z,6.95
2018-08-19T16:55:10.592Z,6.78
2018-08-19T16:57:39.079Z,5.45
2018-08-19T17:00:08.986Z,6.15
2018-08-19T17:02:37.387Z,5.58
2018-08-19T17:05:15.720Z,4.67
2018-08-19T17:07:44.086Z,6.17
2018-08-19T17:10:12.742Z,5.70
2018-08-19T17:12:41.170Z,6.62
2018-08-19T17:15:09.557Z,4.95
2018-08-19T17:17:37.990Z,5.55
2018-08-19T17:20:06.376Z,5.08
2018-08-19T17:22:36.361Z,5.05
2018-08-19T17:25:05.679Z,7.12
2018-08-19T17:27:34.116Z,5.28
2018-08-19T17:30:02.585Z,5.80
2018-08-19T17:32:30.980Z,5.78
2018-08-19T17:34:59.352Z,5.35
2018-08-19T17:37:28.366Z,7.50
2018-08-19T17:39:56.897Z,6.55
2018-08-19T17:42:25.350Z,7.37
2018-08-19T17:44:53.919Z,6.15
2018-08-19T17:47:22.428Z,5.30
2018-08-19T17:49:50.872Z,6.00
2018-08-19T17:52:19.387Z,5.72
2018-08-19T17:54:48.020Z,5.58
2018-08-19T17:57:16.527Z,5.12
2018-08-19T17:59:44.864Z,6.58
2018-08-19T18:02:13.295Z,6.50
2018-08-19T18:04:47.099Z,5.55
2018-08-19T18:07:19.510Z,5.83
2018-08-19T18:09:52.138Z,5.17
2018-08-19T18:12:21.805Z,5.85
2018-08-19T18:14:50.228Z,5.10
2018-08-19T18:17:18.835Z,5.47
2018-08-19T18:19:47.333Z,6.33
2018-08-19T18:22:18.346Z,11.07
2018-08-19T18:24:51.011Z,9.23
2018-08-19T18:27:20.319Z,6.42
2018-08-19T18:29:49.391Z,5.55
2018-08-19T18:32:17.752Z,5.70
2018-08-19T18:34:46.211Z,5.40
2018-08-19T18:37:15.686Z,5.40
2018-08-19T18:39:44.231Z,6.37
2018-08-19T18:42:19.627Z,4.83
2018-08-19T18:44:48.856Z,6.80
2018-08-19T18:47:23.729Z,4.83
2018-08-19T18:50:14.287Z,5.50
2018-08-19T18:52:43.222Z,5.05
2018-08-19T18:55:15.952Z,4.58
2018-08-19T18:58:02.189Z,6.33
2018-08-19T19:00:30.743Z,5.78
2018-08-19T19:03:00.466Z,6.28
2018-08-19T19:05:43.890Z,4.85
2018-08-19T19:08:16.829Z,7.87
2018-08-19T19:10:52.816Z,4.65
2018-08-19T19:13:22.190Z,4.67
2018-08-19T19:15:50.885Z,5.30
2018-08-19T19:18:19.482Z,6.80
2018-08-19T19:20:53.445Z,4.72
2018-08-19T19:23:30.224Z,4.42
2018-08-19T19:25:59.276Z,5.47
2018-08-19T19:28:28.116Z,5.55
2018-08-19T19:31:02.055Z,4.50
2018-08-19T19:33:30.468Z,5.10
2018-08-19T19:36:03.980Z,4.87
2018-08-19T19:38:32.976Z,5.78
2018-08-19T19:41:09.683Z,4.58
2018-08-19T19:43:38.353Z,5.90
2018-08-19T19:46:06.960Z,4.97
2018-08-19T19:48:35.460Z,4.75
2018-08-19T19:51:04.154Z,6.65
2018-08-19T19:53:32.680Z,6.70
2018-08-19T19:56:08.378Z,4.45
2018-08-19T19:58:37.237Z,4.97
2018-08-19T20:01:05.790Z,4.00
2018-08-19T20:03:40.953Z,4.37
2018-08-19T20:06:09.715Z,5.47
2018-08-19T20:08:38.122Z,4.62
2018-08-19T20:11:13.542Z,4.55
2018-08-19T20:13:42.708Z,4.42
2018-08-19T20:16:11.536Z,4.72
2018-08-19T20:18:40.410Z,4.75
2018-08-19T20:21:14.952Z,6.12
2018-08-19T20:23:43.367Z,4.25
2018-08-19T20:26:11.849Z,4.37
2018-08-19T20:28:40.223Z,4.50
2018-08-19T20:31:09.170Z,5.45
2018-08-19T20:33:37.696Z,4.53
2018-08-19T20:36:07.246Z,4.78
2018-08-19T20:38:35.683Z,6.95
2018-08-19T20:41:04.178Z,4.55
2018-08-19T20:43:32.620Z,4.65
2018-08-19T20:46:00.956Z,3.77
2018-08-19T20:48:29.433Z,4.62
2018-08-19T20:50:57.801Z,4.20
2018-08-19T20:53:28.677Z,4.65
2018-08-19T20:55:57.453Z,4.40
2018-08-19T20:58:26.339Z,4.70
2018-08-19T21:00:55.757Z,5.42
2018-08-19T21:03:24.343Z,4.45
2018-08-19T21:05:52.773Z,4.40
2018-08-19T21:08:21.373Z,4.30
2018-08-19T21:10:50.163Z,5.05
2018-08-19T21:13:19.947Z,4.40
2018-08-19T21:15:50.825Z,5.22
2018-08-19T21:18:19.245Z,5.00
2018-08-19T21:20:47.605Z,5.10
2018-08-19T21:23:16.137Z,3.87
2018-08-19T21:25:50.905Z,3.98
2018-08-19T21:28:20.341Z,4.67
2018-08-19T21:30:48.948Z,4.60
2018-08-19T21:33:17.443Z,4.25
2018-08-19T21:35:49.894Z,4.70
2018-08-19T21:38:19.055Z,3.72
2018-08-19T21:40:47.486Z,4.55
2018-08-19T21:43:15.880Z,4.47
2018-08-19T21:45:44.236Z,4.40
2018-08-19T21:48:14.756Z,4.15
2018-08-19T21:50:43.430Z,4.17
2018-08-19T21:53:16.970Z,4.00
2018-08-19T21:55:46.996Z,4.17
2018-08-19T21:58:15.602Z,4.45
2018-08-19T22:00:45.371Z,4.03
2018-08-19T22:03:21.106Z,4.10
2018-08-19T22:05:50.752Z,4.22
2018-08-19T22:08:19.411Z,5.17
2018-08-19T22:10:48.813Z,4.45
2018-08-19T22:13:17.331Z,4.55
2018-08-19T22:15:46.651Z,4.45
2018-08-19T22:18:23.613Z,4.22
2018-08-19T22:21:04.034Z,4.53
2018-08-19T22:23:44.031Z,4.25
2018-08-19T22:26:13.688Z,4.33
2018-08-19T22:28:42.609Z,3.98
2018-08-19T22:31:24.259Z,3.95
2018-08-19T22:33:53.790Z,4.12
2018-08-19T22:36:22.300Z,5.50
2018-08-19T22:38:51.439Z,5.08
2018-08-19T22:41:22.395Z,4.35
2018-08-19T22:43:51.431Z,4.20
2018-08-19T22:46:19.839Z,4.35
2018-08-19T22:48:48.372Z,4.00
2018-08-19T22:51:16.746Z,4.08
2018-08-19T22:53:45.178Z,3.85
2018-08-19T22:56:13.600Z,4.42
2018-08-19T22:58:42.131Z,4.00
2018-08-19T23:01:10.590Z,3.87
2018-08-19T23:03:38.936Z,4.12
2018-08-19T23:06:07.334Z,3.95
2018-08-19T23:08:35.706Z,3.85
2018-08-19T23:11:04.744Z,3.55
2018-08-19T23:14:41.900Z,4.10
2018-08-19T23:17:10.264Z,4.03
2018-08-19T23:19:38.640Z,4.30
2018-08-19T23:22:07.051Z,3.87
2018-08-19T23:24:35.642Z,5.00
2018-08-19T23:27:04.107Z,4.50
2018-08-19T23:29:32.684Z,4.03
2018-08-19T23:32:01.092Z,4.05
2018-08-19T23:34:29.417Z,3.95
2018-08-19T23:36:57.840Z,3.95
2018-08-19T23:39:26.257Z,4.33
2018-08-19T23:41:54.812Z,4.65
2018-08-19T23:44:23.245Z,4.25
2018-08-19T23:46:51.807Z,4.87
2018-08-19T23:49:20.255Z,4.40
2018-08-19T23:51:48.607Z,3.95
2018-08-19T23:54:16.942Z,4.00
2018-08-19T23:56:45.274Z,4.30
2018-08-19T23:59:16.140Z,4.05
